Time;durP1;ratioP1;P1;durP2;ratioP2;P2;SDS_P1;SDS_P2;PMS_P1;PMS_P2;Temp;Humidity;BMP_temperature;BMP_pressure;BME280_temperature;BME280_humidity;BME280_pressure;Samples;Min_cycle;Max_cycle;Signal;HPM_P1;HPM_P2
2021/11/26 00:00:29;;;;;;;;;;;;;;;20.80;51.48;98721.44;2090536;28;20260;-67
2021/11/26 00:01:29;;;;;;;;;;;;;;;20.76;51.32;98722.88;2089580;28;20288;-66
2021/11/26 00:02:30;;;;;;;;;;;;;;;20.74;51.48;98724.94;2091326;28;19913;-65
2021/11/26 00:03:31;;;;;;;;;;;;;;;20.77;51.55;98730.03;2091207;28;19916;-66
2021/11/26 00:04:31;;;;;;;;;;;;;;;20.74;51.20;98725.78;2091377;28;19959;-65
2021/11/26 00:05:31;;;;;;;;;;;;;;;20.75;51.49;98726.66;2090541;28;19913;-66
2021/11/26 00:06:32;;;;;;;;;;;;;;;20.71;51.18;98728.09;2090682;28;19913;-65
2021/11/26 00:07:32;;;;;;;;;;;;;;;20.71;51.43;98725.34;2090602;28;20424;-65
2021/11/26 00:08:33;;;;;;;;;;;;;;;20.70;51.51;98729.97;2090516;28;20280;-65
2021/11/26 00:09:33;;;;;;;;;;;;;;;20.68;51.47;98725.75;2091165;28;19963;-66
2021/11/26 00:10:33;;;;;;;;;;;;;;;20.68;51.75;98725.75;2090496;28;19913;-65
2021/11/26 00:11:40;;;;;;;;;;;;;;;20.68;51.65;98731.22;2090496;28;19952;-65
2021/11/26 00:12:47;;;;;;;;;;;;;;;20.68;51.60;98726.59;2091248;28;19913;-64
2021/11/26 00:13:53;;;;;;;;;;;;;;;20.67;51.63;98727.59;2090871;28;19924;-64
2021/11/26 00:16:05;;;;;;;;;;;;;;;20.61;51.82;98731.13;2091102;28;19912;-64
2021/11/26 00:17:14;;;;;;;;;;;;;;;20.61;51.52;98725.66;2091036;28;20000;-65
2021/11/26 00:18:19;;;;;;;;;;;;;;;20.64;51.60;98732.63;2091116;28;19924;-65
2021/11/26 00:19:19;;;;;;;;;;;;;;;20.63;51.36;98731.78;2090866;28;20003;-64
2021/11/26 00:20:20;;;;;;;;;;;;;;;20.64;51.56;98725.25;2091248;28;19920;-64
2021/11/26 00:21:20;;;;;;;;;;;;;;;20.65;51.58;98724.25;2090957;28;19969;-64
2021/11/26 00:22:20;;;;;;;;;;;;;;;20.65;51.47;98726.09;2091136;28;19919;-64
2021/11/26 00:23:21;;;;;;;;;;;;;;;20.67;51.33;98729.50;2091202;28;19912;-64
2021/11/26 00:24:22;;;;;;;;;;;;;;;20.67;51.22;98729.50;2090899;28;19956;-64
2021/11/26 00:25:22;;;;;;;;;;;;;;;20.66;51.42;98717.72;2091068;28;19913;-64
2021/11/26 00:26:23;;;;;;;;;;;;;;;20.67;51.40;98724.03;2091190;28;19996;-64
2021/11/26 00:27:24;;;;;;;;;;;;;;;20.68;51.30;98723.00;2091008;28;19920;-64
2021/11/26 00:28:24;;;;;;;;;;;;;;;20.66;51.46;98717.72;2090448;28;20357;-64
2021/11/26 00:29:33;;;;;;;;;;;;;;;20.67;51.21;98724.03;2090190;28;20276;-64
2021/11/26 00:30:33;;;;;;;;;;;;;;;20.67;51.29;98724.88;2090911;28;20382;-64
2021/11/26 00:31:34;;;;;;;;;;;;;;;20.66;51.36;98719.59;2091005;28;20312;-64
2021/11/26 00:32:34;;;;;;;;;;;;;;;20.67;51.30;98727.59;2090904;28;19960;-64
2021/11/26 00:33:41;;;;;;;;;;;;;;;20.67;51.32;98724.03;2090991;28;20024;-65
2021/11/26 00:34:41;;;;;;;;;;;;;;;20.65;51.33;98728.84;2090962;28;19963;-65
2021/11/26 00:35:42;;;;;;;;;;;;;;;20.64;51.16;98725.25;2091132;28;19935;-65
2021/11/26 00:36:42;;;;;;;;;;;;;;;20.63;51.41;98722.72;2090960;28;20395;-64
2021/11/26 00:37:42;;;;;;;;;;;;;;;20.63;51.36;98728.19;2091006;28;19913;-65
2021/11/26 00:38:48;;;;;;;;;;;;;;;20.64;51.33;98735.38;2091086;28;19913;-65
2021/11/26 00:39:49;;;;;;;;;;;;;;;20.61;51.31;98730.28;2090814;28;20380;-65
2021/11/26 00:40:49;;;;;;;;;;;;;;;20.62;51.23;98731.97;2091017;28;20260;-65
2021/11/26 00:41:49;;;;;;;;;;;;;;;20.62;51.46;98731.97;2091000;28;19912;-65
2021/11/26 00:42:50;;;;;;;;;;;;;;;20.61;51.59;98725.66;2090989;28;19956;-64
2021/11/26 00:43:51;;;;;;;;;;;;;;;20.59;51.53;98727.72;2090874;28;19913;-65
2021/11/26 00:44:51;;;;;;;;;;;;;;;20.60;51.42;98728.56;2090937;28;19988;-64
2021/11/26 00:45:51;;;;;;;;;;;;;;;20.61;51.44;98724.81;2090083;28;19913;-64
2021/11/26 00:46:51;;;;;;;;;;;;;;;20.59;51.33;98732.38;2090291;28;19917;-65
2021/11/26 00:47:52;;;;;;;;;;;;;;;20.58;51.32;98725.19;2090279;28;20359;-65
2021/11/26 00:48:52;;;;;;;;;;;;;;;20.58;51.57;98736.13;2090910;28;20379;-65
2021/11/26 00:49:52;;;;;;;;;;;;;;;20.59;51.67;98732.38;2090896;28;19919;-64
2021/11/26 00:50:53;;;;;;;;;;;;;;;20.60;51.46;98734.06;2090770;28;20347;-65
2021/11/26 00:51:53;;;;;;;;;;;;;;;20.58;51.60;98742.47;2097877;28;20310;-64
2021/11/26 00:52:54;;;;;;;;;;;;;;;20.57;51.29;98734.44;2099148;28;19912;-64
2021/11/26 00:53:54;;;;;;;;;;;;;;;20.57;51.51;98745.41;2098961;28;19947;-64
2021/11/26 00:54:54;;;;;;;;;;;;;;;20.57;51.58;98739.91;2099158;28;19913;-64
2021/11/26 00:55:54;;;;;;;;;;;;;;;20.57;51.47;98739.91;2098912;28;19999;-65
2021/11/26 00:56:55;;;;;;;;;;;;;;;20.58;51.70;98738.88;2099022;28;19942;-65
2021/11/26 00:57:55;;;;;;;;;;;;;;;20.57;51.73;98737.19;2099256;28;20065;-65
2021/11/26 00:58:55;;;;;;;;;;;;;;;20.58;51.65;98736.13;2099090;28;19917;-65
2021/11/26 00:59:57;;;;;;;;;;;;;;;20.57;51.64;98739.91;2099055;28;19931;-64
2021/11/26 01:00:57;;;;;;;;;;;;;;;20.56;51.42;98736.34;2098985;28;20016;-65
2021/11/26 01:01:58;;;;;;;;;;;;;;;20.57;51.62;98738.03;2098986;28;20390;-65
2021/11/26 01:02:59;;;;;;;;;;;;;;;20.56;51.44;98747.28;2099041;28;20065;-64
2021/11/26 01:03:59;;;;;;;;;;;;;;;20.57;51.51;98735.28;2099070;28;19913;-65
2021/11/26 01:04:59;;;;;;;;;;;;;;;20.56;51.68;98739.06;2098957;28;19932;-64
2021/11/26 01:06:00;;;;;;;;;;;;;;;20.57;51.65;98739.91;2099026;28;19913;-64
2021/11/26 01:07:00;;;;;;;;;;;;;;;20.54;51.44;98741.97;2098203;28;19916;-66
2021/11/26 01:08:00;;;;;;;;;;;;;;;20.50;51.44;98739.78;2088908;28;19920;-66
2021/11/26 01:09:01;;;;;;;;;;;;;;;20.39;51.62;98743.88;2088917;28;19918;-66
2021/11/26 01:10:03;;;;;;;;;;;;;;;20.29;51.63;98746.06;2088317;28;19919;-66
2021/11/26 01:11:03;;;;;;;;;;;;;;;20.18;51.83;98741.06;2093845;28;20467;-66
2021/11/26 01:12:04;;;;;;;;;;;;;;;20.12;52.02;98735.31;2087540;28;19932;-66
2021/11/26 01:13:04;;;;;;;;;;;;;;;20.06;52.09;98738.84;2083477;28;19908;-66
2021/11/26 01:14:04;;;;;;;;;;;;;;;20.03;52.16;98744.66;2088691;28;19930;-66
2021/11/26 01:15:06;;;;;;;;;;;;;;;20.00;52.25;98745.03;2091320;28;19915;-66
2021/11/26 01:16:06;;;;;;;;;;;;;;;19.98;52.33;98741.63;2086037;28;19956;-66
2021/11/26 01:17:07;;;;;;;;;;;;;;;19.96;52.33;98748.34;2089786;28;20306;-66
2021/11/26 01:18:07;;;;;;;;;;;;;;;19.93;52.49;98738.63;2090836;28;19947;-66
2021/11/26 01:19:14;;;;;;;;;;;;;;;19.90;52.57;98742.59;2081656;28;20372;-66
2021/11/26 01:20:15;;;;;;;;;;;;;;;19.89;52.38;98743.63;2080423;28;19917;-66
2021/11/26 01:21:16;;;;;;;;;;;;;;;19.89;52.38;98754.56;2088258;28;20390;-66
2021/11/26 01:22:16;;;;;;;;;;;;;;;19.89;52.51;98748.22;2087685;28;20077;-66
2021/11/26 01:23:17;;;;;;;;;;;;;;;19.89;52.42;98748.22;2088681;28;20003;-66
2021/11/26 01:24:17;;;;;;;;;;;;;;;19.87;52.53;98744.84;2084377;28;19966;-66
2021/11/26 01:25:17;;;;;;;;;;;;;;;19.87;52.49;98744.84;2086744;28;19921;-66
2021/11/26 01:26:18;;;;;;;;;;;;;;;19.86;52.61;98751.34;2088958;28;19965;-67
2021/11/26 01:27:18;;;;;;;;;;;;;;;19.86;52.66;98751.34;2088512;28;20367;-66
2021/11/26 01:28:18;;;;;;;;;;;;;;;19.85;52.64;98753.25;2088089;28;20378;-66
2021/11/26 01:29:19;;;;;;;;;;;;;;;19.84;52.46;98751.56;2096902;28;19916;-66
2021/11/26 01:30:28;;;;;;;;;;;;;;;19.84;52.72;98751.56;2097115;28;19953;-66
2021/11/26 01:31:29;;;;;;;;;;;;;;;19.84;52.47;98750.69;2088406;28;19920;-66
2021/11/26 01:32:29;;;;;;;;;;;;;;;19.82;52.61;98758.22;2089111;28;19916;-66
2021/11/26 01:33:29;;;;;;;;;;;;;;;19.82;52.57;98755.47;2088187;28;19922;-66
2021/11/26 01:34:30;;;;;;;;;;;;;;;19.81;52.75;98753.78;2089811;28;19944;-66
2021/11/26 01:35:30;;;;;;;;;;;;;;;19.81;52.78;98762.00;2088417;28;19916;-66
2021/11/26 01:36:33;;;;;;;;;;;;;;;19.80;52.70;98754.84;2088904;28;19960;-65
2021/11/26 01:37:33;;;;;;;;;;;;;;;19.80;52.77;98752.09;2086017;28;20029;-65
2021/11/26 01:38:33;;;;;;;;;;;;;;;19.80;52.77;98752.09;2088902;28;20005;-66
2021/11/26 01:39:34;;;;;;;;;;;;;;;19.79;52.77;98758.59;2088116;28;19962;-66
2021/11/26 01:40:35;;;;;;;;;;;;;;;19.79;52.83;98753.13;2089185;28;19969;-65
2021/11/26 01:41:41;;;;;;;;;;;;;;;19.78;52.75;98751.44;2088037;28;20844;-65
2021/11/26 01:42:42;;;;;;;;;;;;;;;19.76;52.79;98753.50;2088570;28;19919;-65
2021/11/26 01:43:42;;;;;;;;;;;;;;;19.76;52.82;98742.56;2089923;28;19916;-66
2021/11/26 01:44:42;;;;;;;;;;;;;;;19.76;52.91;98745.31;2089519;28;19953;-66
2021/11/26 01:45:48;;;;;;;;;;;;;;;19.76;52.78;98753.50;2090003;28;20432;-65
2021/11/26 01:46:48;;;;;;;;;;;;;;;19.75;52.77;98746.34;2089717;28;19916;-66
2021/11/26 01:47:48;;;;;;;;;;;;;;;19.75;52.82;98747.19;2080671;28;20450;-65
2021/11/26 01:48:49;;;;;;;;;;;;;;;19.75;52.99;98760.88;2080699;28;19921;-65
2021/11/26 01:49:49;;;;;;;;;;;;;;;19.75;52.91;98754.56;2089531;28;19922;-65
2021/11/26 01:50:51;;;;;;;;;;;;;;;19.74;52.83;98755.56;2089115;28;19923;-65
2021/11/26 01:51:51;;;;;;;;;;;;;;;19.73;52.88;98757.47;2089122;28;20209;-66
2021/11/26 01:52:54;;;;;;;;;;;;;;;19.74;52.98;98761.88;2086203;28;19916;-65
2021/11/26 01:53:54;;;;;;;;;;;;;;;19.73;53.07;98759.34;2088851;28;20716;-66
2021/11/26 01:54:54;;;;;;;;;;;;;;;19.71;53.03;98759.53;2089532;28;19912;-65
2021/11/26 01:55:55;;;;;;;;;;;;;;;19.72;53.03;98763.09;2079417;28;19917;-65
2021/11/26 01:56:55;;;;;;;;;;;;;;;19.70;52.78;98761.41;2077580;28;19921;-65
2021/11/26 01:57:55;;;;;;;;;;;;;;;19.70;52.95;98766.91;2095011;28;19916;-66
2021/11/26 01:59:02;;;;;;;;;;;;;;;19.70;52.88;98764.16;2091482;28;19912;-66
2021/11/26 02:00:05;;;;;;;;;;;;;;;19.70;53.17;98766.91;2090730;28;19920;-65
2021/11/26 02:01:07;;;;;;;;;;;;;;;19.70;52.93;98757.84;2090076;28;20618;-65
2021/11/26 02:02:08;;;;;;;;;;;;;;;19.70;53.04;98772.38;2090398;28;19924;-66
2021/11/26 02:03:08;;;;;;;;;;;;;;;19.70;52.94;98766.91;2090609;28;20770;-66
2021/11/26 02:04:08;;;;;;;;;;;;;;;19.68;53.04;98765.38;2088872;28;20460;-65
2021/11/26 02:05:09;;;;;;;;;;;;;;;19.69;53.04;98770.66;2088962;28;20535;-65
2021/11/26 02:06:09;;;;;;;;;;;;;;;19.69;53.01;98770.66;2090020;28;20100;-66
2021/11/26 02:07:10;;;;;;;;;;;;;;;19.69;52.99;98770.66;2086870;28;20808;-65
2021/11/26 02:08:10;;;;;;;;;;;;;;;19.71;53.07;98767.75;2088353;28;19913;-66
2021/11/26 02:09:10;;;;;;;;;;;;;;;19.70;53.21;98766.06;2088773;28;19920;-66
2021/11/26 02:10:11;;;;;;;;;;;;;;;19.71;52.94;98770.47;2087939;28;19999;-66
2021/11/26 02:11:11;;;;;;;;;;;;;;;19.70;53.01;98777.81;2086684;28;19916;-66
2021/11/26 02:12:12;;;;;;;;;;;;;;;19.70;52.97;98772.38;2088333;28;19916;-66
2021/11/26 02:13:12;;;;;;;;;;;;;;;19.72;53.02;98774.03;2087385;28;19986;-66
2021/11/26 02:14:14;;;;;;;;;;;;;;;19.72;53.01;98774.03;2088663;28;19995;-66
2021/11/26 02:15:16;;;;;;;;;;;;;;;19.72;52.87;98774.03;2087934;28;19923;-66
2021/11/26 02:16:16;;;;;;;;;;;;;;;19.72;53.06;98763.09;2084061;28;19912;-66
2021/11/26 02:17:16;;;;;;;;;;;;;;;19.72;52.97;98766.72;2084713;28;19912;-66
2021/11/26 02:18:17;;;;;;;;;;;;;;;19.74;52.80;98766.50;2089483;28;20396;-66
2021/11/26 02:19:24;;;;;;;;;;;;;;;19.74;52.83;98771.97;2089081;28;20041;-66
2021/11/26 02:20:26;;;;;;;;;;;;;;;19.76;52.71;98768.03;2084221;28;20298;-66
2021/11/26 02:21:26;;;;;;;;;;;;;;;19.78;52.70;98767.84;2088212;28;19913;-67
2021/11/26 02:22:27;;;;;;;;;;;;;;;19.78;52.65;98767.84;2087918;28;19916;-67
2021/11/26 02:23:27;;;;;;;;;;;;;;;19.80;52.60;98771.25;2088094;28;19916;-66
2021/11/26 02:24:28;;;;;;;;;;;;;;;19.81;52.59;98779.25;2087167;28;19944;-66
2021/11/26 02:25:28;;;;;;;;;;;;;;;19.82;52.58;98780.09;2089204;28;19954;-66
2021/11/26 02:26:29;;;;;;;;;;;;;;;19.84;52.39;98778.91;2087128;28;19920;-66
2021/11/26 02:27:29;;;;;;;;;;;;;;;19.86;52.32;98778.69;2089042;28;20330;-66
2021/11/26 02:28:29;;;;;;;;;;;;;;;19.88;52.28;98782.09;2074100;28;19927;-65
2021/11/26 02:29:29;;;;;;;;;;;;;;;19.89;52.34;98776.44;2079182;28;19916;-65
2021/11/26 02:30:30;;;;;;;;;;;;;;;19.92;52.20;98786.16;2089409;28;20291;-66
2021/11/26 02:31:31;;;;;;;;;;;;;;;19.93;52.24;98776.91;2087969;28;20298;-65
2021/11/26 02:32:31;;;;;;;;;;;;;;;19.96;52.30;98781.16;2087488;28;19923;-66
2021/11/26 02:33:32;;;;;;;;;;;;;;;19.97;52.11;98777.41;2086937;28;20005;-66
2021/11/26 02:34:32;;;;;;;;;;;;;;;19.97;52.23;98778.25;2087933;28;19912;-66
2021/11/26 02:35:33;;;;;;;;;;;;;;;20.00;52.08;98775.13;2088176;28;20046;-66
2021/11/26 02:36:34;;;;;;;;;;;;;;;20.01;51.91;98779.53;2087781;28;20299;-66
2021/11/26 02:37:34;;;;;;;;;;;;;;;20.03;52.10;98772.00;2086220;28;19920;-66
2021/11/26 02:38:34;;;;;;;;;;;;;;;20.04;52.16;98772.84;2086277;28;19983;-66
2021/11/26 02:39:34;;;;;;;;;;;;;;;20.03;52.02;98777.47;2087327;28;19983;-66
2021/11/26 02:40:36;;;;;;;;;;;;;;;20.06;51.90;98777.13;2086612;28;19908;-66
2021/11/26 02:41:38;;;;;;;;;;;;;;;20.07;51.89;98778.81;2088380;28;20010;-67
2021/11/26 02:42:39;;;;;;;;;;;;;;;20.07;51.81;98772.50;2087162;28;20232;-66
2021/11/26 02:43:39;;;;;;;;;;;;;;;20.08;51.77;98772.28;2087194;28;20370;-66
2021/11/26 02:44:39;;;;;;;;;;;;;;;20.08;51.66;98775.03;2086674;28;20224;-66
2021/11/26 02:45:40;;;;;;;;;;;;;;;20.10;51.88;98781.16;2083842;28;19913;-66
2021/11/26 02:46:41;;;;;;;;;;;;;;;20.11;51.80;98774.66;2083854;28;20012;-66
2021/11/26 02:47:41;;;;;;;;;;;;;;;20.12;51.85;98770.88;2087000;28;19915;-66
2021/11/26 02:48:41;;;;;;;;;;;;;;;20.13;51.66;98775.31;2085566;28;19923;-66
2021/11/26 02:49:42;;;;;;;;;;;;;;;20.15;51.53;98771.56;2087155;28;20433;-66
2021/11/26 02:50:43;;;;;;;;;;;;;;;20.17;51.66;98772.22;2087757;28;19935;-66
2021/11/26 02:51:43;;;;;;;;;;;;;;;20.18;51.62;98773.91;2087189;28;19930;-66
2021/11/26 02:52:44;;;;;;;;;;;;;;;20.19;51.56;98772.88;2086745;28;19921;-67
2021/11/26 02:53:45;;;;;;;;;;;;;;;20.19;51.58;98767.41;2081341;28;20477;-66
2021/11/26 02:54:45;;;;;;;;;;;;;;;20.20;51.45;98771.84;2087309;28;20300;-66
2021/11/26 02:55:46;;;;;;;;;;;;;;;20.21;51.47;98770.78;2086389;28;20462;-66
2021/11/26 02:56:46;;;;;;;;;;;;;;;20.22;51.58;98775.22;2087601;28;19920;-66
2021/11/26 02:57:46;;;;;;;;;;;;;;;20.22;51.26;98767.03;2087883;28;20272;-66
2021/11/26 02:58:46;;;;;;;;;;;;;;;20.24;51.40;98767.69;2085744;28;20383;-66
2021/11/26 02:59:47;;;;;;;;;;;;;;;20.24;51.21;98765.78;2087394;28;19916;-66
2021/11/26 03:00:49;;;;;;;;;;;;;;;20.24;51.30;98764.94;2086559;28;19917;-66
2021/11/26 03:01:49;;;;;;;;;;;;;;;20.25;51.24;98762.00;2087346;28;20642;-66
2021/11/26 03:02:50;;;;;;;;;;;;;;;20.26;51.29;98754.63;2086611;28;19992;-66
2021/11/26 03:03:50;;;;;;;;;;;;;;;20.28;51.19;98758.03;2087846;28;20350;-67
2021/11/26 03:04:50;;;;;;;;;;;;;;;20.25;51.40;98759.28;2086941;28;19919;-67
2021/11/26 03:05:58;;;;;;;;;;;;;;;20.27;51.35;98762.66;2087325;28;19916;-66
2021/11/26 03:07:00;;;;;;;;;;;;;;;20.28;51.24;98760.78;2085774;28;20810;-66
2021/11/26 03:08:01;;;;;;;;;;;;;;;20.29;51.23;98759.75;2077312;28;19921;-66
2021/11/26 03:09:01;;;;;;;;;;;;;;;20.29;51.17;98757.88;2078048;28;19916;-66
2021/11/26 03:10:01;;;;;;;;;;;;;;;20.29;51.39;98763.34;2086523;28;19913;-66
2021/11/26 03:11:03;;;;;;;;;;;;;;;20.29;51.37;98765.22;2086079;28;19918;-66
2021/11/26 03:12:04;;;;;;;;;;;;;;;20.30;51.11;98761.44;2086778;28;20465;-66
2021/11/26 03:13:06;;;;;;;;;;;;;;;20.29;51.15;98760.59;2085296;28;19949;-66
2021/11/26 03:14:06;;;;;;;;;;;;;;;20.31;51.16;98768.63;2086604;28;20337;-66
2021/11/26 03:15:07;;;;;;;;;;;;;;;20.30;51.28;98766.91;2085805;28;19920;-66
2021/11/26 03:16:07;;;;;;;;;;;;;;;20.30;51.12;98765.03;2085536;28;20973;-66
2021/11/26 03:17:07;;;;;;;;;;;;;;;20.29;51.23;98766.06;2088555;28;19921;-66
2021/11/26 03:18:09;;;;;;;;;;;;;;;20.30;51.35;98772.38;2086301;28;19920;-66
2021/11/26 03:19:31;;;;;;;;;;;;;;;20.29;51.18;98762.50;2076835;28;19917;-66
2021/11/26 03:20:31;;;;;;;;;;;;;;;20.30;51.09;98761.44;2081392;28;19919;-66
2021/11/26 03:21:32;;;;;;;;;;;;;;;20.28;51.16;98763.50;2086128;28;19987;-66
2021/11/26 03:22:32;;;;;;;;;;;;;;;20.28;51.34;98763.50;2085963;28;19913;-66
2021/11/26 03:23:32;;;;;;;;;;;;;;;20.27;51.31;98759.09;2087337;28;20350;-66
2021/11/26 03:24:33;;;;;;;;;;;;;;;20.28;51.30;98760.78;2085518;28;19947;-66
2021/11/26 03:25:33;;;;;;;;;;;;;;;20.26;51.19;98761.00;2086226;28;19915;-66
2021/11/26 03:26:33;;;;;;;;;;;;;;;20.27;51.42;98764.56;2086624;28;19915;-66
2021/11/26 03:27:34;;;;;;;;;;;;;;;20.27;51.22;98764.56;2085797;28;19923;-66
2021/11/26 03:28:34;;;;;;;;;;;;;;;20.26;51.36;98765.59;2086761;28;19909;-66
2021/11/26 03:29:34;;;;;;;;;;;;;;;20.26;51.35;98758.25;2085936;28;19915;-66
2021/11/26 03:30:35;;;;;;;;;;;;;;;20.25;51.31;98763.91;2085602;28;19917;-66
2021/11/26 03:31:35;;;;;;;;;;;;;;;20.24;51.43;98756.75;2071746;28;19994;-66
2021/11/26 03:32:36;;;;;;;;;;;;;;;20.24;51.44;98756.75;2077182;28;20337;-66
2021/11/26 03:33:36;;;;;;;;;;;;;;;20.23;51.42;98764.09;2089415;28;19920;-66
2021/11/26 03:34:37;;;;;;;;;;;;;;;20.24;51.27;98762.22;2080872;28;19923;-66
2021/11/26 03:35:37;;;;;;;;;;;;;;;20.22;51.31;98759.66;2083220;28;19916;-66
2021/11/26 03:36:38;;;;;;;;;;;;;;;20.23;51.34;98763.25;2086795;28;19916;-66
2021/11/26 03:37:38;;;;;;;;;;;;;;;20.23;51.20;98763.25;2085941;28;19916;-66
2021/11/26 03:38:38;;;;;;;;;;;;;;;20.23;51.31;98765.97;2086272;28;19924;-66
2021/11/26 03:39:39;;;;;;;;;;;;;;;20.22;51.36;98764.28;2087468;28;19917;-66
2021/11/26 03:40:39;;;;;;;;;;;;;;;20.22;51.20;98758.81;2083133;28;19924;-66
2021/11/26 03:41:40;;;;;;;;;;;;;;;20.20;51.21;98764.47;2083481;28;20137;-66
2021/11/26 03:42:40;;;;;;;;;;;;;;;20.20;51.36;98760.88;2084123;28;20796;-66
2021/11/26 03:43:41;;;;;;;;;;;;;;;20.20;51.12;98766.34;2084742;28;19919;-66
2021/11/26 03:44:41;;;;;;;;;;;;;;;20.19;51.40;98765.50;2086298;28;19916;-66
2021/11/26 03:45:42;;;;;;;;;;;;;;;20.19;51.29;98759.19;2085483;28;19920;-67
2021/11/26 03:46:42;;;;;;;;;;;;;;;20.19;51.35;98764.69;2086448;28;20020;-66
2021/11/26 03:47:42;;;;;;;;;;;;;;;20.20;51.33;98771.84;2085907;28;20517;-66
2021/11/26 03:48:43;;;;;;;;;;;;;;;20.19;51.25;98764.69;2081434;28;20815;-67
2021/11/26 03:49:44;;;;;;;;;;;;;;;20.19;51.43;98764.69;2085523;28;20303;-66
2021/11/26 03:50:44;;;;;;;;;;;;;;;20.18;51.40;98768.44;2088122;28;20295;-67
2021/11/26 03:51:44;;;;;;;;;;;;;;;20.16;51.30;98760.41;2086085;28;20362;-67
2021/11/26 03:52:45;;;;;;;;;;;;;;;20.18;51.22;98768.44;2083441;28;19920;-66
2021/11/26 03:53:45;;;;;;;;;;;;;;;20.15;51.32;98764.19;2082616;28;19924;-67
2021/11/26 03:54:45;;;;;;;;;;;;;;;20.15;51.34;98766.91;2086363;28;20381;-67
2021/11/26 03:55:46;;;;;;;;;;;;;;;20.16;51.33;98767.75;2085507;28;19916;-66
2021/11/26 03:56:46;;;;;;;;;;;;;;;20.14;51.32;98765.25;2085708;28;20019;-66
2021/11/26 03:57:47;;;;;;;;;;;;;;;20.13;51.26;98772.56;2085712;28;19934;-67
2021/11/26 03:58:47;;;;;;;;;;;;;;;20.14;51.27;98773.44;2085922;28;19912;-66
2021/11/26 03:59:48;;;;;;;;;;;;;;;20.15;51.18;98777.03;2085832;28;19916;-66
2021/11/26 04:00:48;;;;;;;;;;;;;;;20.12;51.34;98773.63;2087472;28;19935;-66
2021/11/26 04:01:48;;;;;;;;;;;;;;;20.12;51.42;98781.00;2085652;28;19970;-67
2021/11/26 04:02:50;;;;;;;;;;;;;;;20.13;51.44;98777.19;2085488;28;19994;-66
2021/11/26 04:03:50;;;;;;;;;;;;;;;20.12;51.33;98778.25;2086777;28;19908;-67
2021/11/26 04:04:50;;;;;;;;;;;;;;;20.10;51.52;98775.69;2085622;28;20275;-67
2021/11/26 04:05:51;;;;;;;;;;;;;;;20.10;51.39;98767.47;2086521;28;20399;-66
2021/11/26 04:06:51;;;;;;;;;;;;;;;20.10;51.35;98772.97;2086256;28;20293;-66
2021/11/26 04:07:51;;;;;;;;;;;;;;;20.10;51.30;98772.97;2085530;28;19916;-66
2021/11/26 04:08:52;;;;;;;;;;;;;;;20.11;51.50;98771.94;2085913;28;19969;-66
2021/11/26 04:09:52;;;;;;;;;;;;;;;20.08;51.49;98766.81;2086597;28;19940;-67
2021/11/26 04:10:53;;;;;;;;;;;;;;;20.08;51.37;98775.03;2085598;28;19977;-67
2021/11/26 04:11:53;;;;;;;;;;;;;;;20.07;51.38;98777.97;2087339;28;19912;-67
2021/11/26 04:12:54;;;;;;;;;;;;;;;20.08;51.37;98775.03;2085875;28;19909;-66
2021/11/26 04:13:54;;;;;;;;;;;;;;;20.07;51.29;98773.34;2085887;28;19908;-66
2021/11/26 04:14:55;;;;;;;;;;;;;;;20.07;51.55;98770.59;2085656;28;19955;-66
2021/11/26 04:16:01;;;;;;;;;;;;;;;20.06;51.42;98770.78;2086121;28;20345;-66
2021/11/26 04:17:04;;;;;;;;;;;;;;;20.05;51.40;98775.41;2086684;28;21713;-66
2021/11/26 04:18:05;;;;;;;;;;;;;;;20.05;51.50;98777.31;2085558;28;20009;-67
2021/11/26 04:19:06;;;;;;;;;;;;;;;20.04;51.51;98765.53;2086248;28;20462;-67
2021/11/26 04:20:07;;;;;;;;;;;;;;;20.04;51.40;98773.72;2087063;28;20374;-65
2021/11/26 04:21:08;;;;;;;;;;;;;;;20.03;51.35;98772.00;2085692;28;20004;-65
2021/11/26 04:22:08;;;;;;;;;;;;;;;20.03;51.54;98773.91;2086942;28;19917;-66
2021/11/26 04:23:09;;;;;;;;;;;;;;;20.02;51.51;98773.06;2085341;28;19917;-66
2021/11/26 04:24:09;;;;;;;;;;;;;;;20.03;51.43;98777.47;2084208;28;19916;-66
2021/11/26 04:25:13;;;;;;;;;;;;;;;20.02;51.39;98777.69;2086639;28;19913;-65
2021/11/26 04:26:13;;;;;;;;;;;;;;;20.03;51.54;98771.16;2084849;28;20323;-66
2021/11/26 04:27:13;;;;;;;;;;;;;;;20.02;51.51;98777.69;2087794;28;19943;-65
2021/11/26 04:28:14;;;;;;;;;;;;;;;20.01;51.38;98774.06;2086426;28;19942;-66
2021/11/26 04:29:14;;;;;;;;;;;;;;;20.00;51.45;98768.81;2086621;28;19916;-65
2021/11/26 04:30:16;;;;;;;;;;;;;;;20.00;51.53;98772.41;2087103;28;20620;-65
2021/11/26 04:31:16;;;;;;;;;;;;;;;20.00;51.54;98769.66;2086143;28;20627;-66
2021/11/26 04:32:17;;;;;;;;;;;;;;;20.00;51.50;98761.44;2087165;28;20300;-65
2021/11/26 04:33:17;;;;;;;;;;;;;;;19.99;51.42;98776.19;2086574;28;20158;-65
2021/11/26 04:34:17;;;;;;;;;;;;;;;19.99;51.48;98762.50;2086269;28;19908;-66
2021/11/26 04:35:18;;;;;;;;;;;;;;;19.98;51.41;98769.00;2087682;28;19985;-65
2021/11/26 04:36:19;;;;;;;;;;;;;;;19.98;51.43;98769.00;2086498;28;19908;-65
2021/11/26 04:37:19;;;;;;;;;;;;;;;19.98;51.48;98763.53;2085779;28;19920;-65
2021/11/26 04:38:20;;;;;;;;;;;;;;;19.97;51.67;98767.31;2087754;28;19915;-66
2021/11/26 04:39:20;;;;;;;;;;;;;;;19.96;51.51;98771.06;2085533;28;20216;-65
2021/11/26 04:40:20;;;;;;;;;;;;;;;19.96;51.52;98768.31;2086251;28;19909;-65
2021/11/26 04:41:21;;;;;;;;;;;;;;;19.96;51.71;98770.22;2087390;28;19923;-65
2021/11/26 04:42:21;;;;;;;;;;;;;;;19.95;51.53;98769.38;2086940;28;19954;-65
2021/11/26 04:43:23;;;;;;;;;;;;;;;19.95;51.53;98774.84;2087087;28;19912;-66
2021/11/26 04:44:23;;;;;;;;;;;;;;;19.95;51.65;98780.31;2086447;28;19920;-66
2021/11/26 04:45:23;;;;;;;;;;;;;;;19.94;51.58;98773.13;2084583;28;19922;-65
2021/11/26 04:46:24;;;;;;;;;;;;;;;19.94;51.73;98778.59;2083290;28;19916;-66
2021/11/26 04:47:24;;;;;;;;;;;;;;;19.93;51.62;98776.91;2082441;28;19920;-66
2021/11/26 04:48:24;;;;;;;;;;;;;;;19.93;51.61;98776.91;2081503;28;19943;-66
2021/11/26 04:49:25;;;;;;;;;;;;;;;19.92;51.66;98778.81;2081318;28;20011;-66
2021/11/26 04:50:25;;;;;;;;;;;;;;;19.92;51.62;98777.97;2081836;28;19928;-66
2021/11/26 04:51:25;;;;;;;;;;;;;;;19.91;51.62;98779.81;2082134;28;19943;-65
2021/11/26 04:52:26;;;;;;;;;;;;;;;19.90;51.68;98778.13;2081821;28;20306;-66
2021/11/26 04:53:26;;;;;;;;;;;;;;;19.91;51.69;98778.97;2082135;28;20302;-66
2021/11/26 04:54:35;;;;;;;;;;;;;;;19.89;51.79;98781.91;2082842;28;19916;-65
2021/11/26 04:55:36;;;;;;;;;;;;;;;19.89;51.69;98781.03;2082806;28;19985;-66
2021/11/26 04:56:36;;;;;;;;;;;;;;;19.88;51.83;98782.09;2083301;28;19920;-66
2021/11/26 04:57:36;;;;;;;;;;;;;;;19.88;51.78;98779.34;2081380;28;21099;-66
2021/11/26 04:58:37;;;;;;;;;;;;;;;19.87;51.91;98777.69;2078107;28;19943;-65
2021/11/26 04:59:37;;;;;;;;;;;;;;;19.88;51.83;98779.34;2078474;28;20025;-66
2021/11/26 05:00:38;;;;;;;;;;;;;;;19.86;51.91;98781.44;2080985;28;19908;-68
2021/11/26 05:01:38;;;;;;;;;;;;;;;19.85;51.77;98774.28;2082537;28;19909;-66
2021/11/26 05:02:38;;;;;;;;;;;;;;;19.86;51.78;98775.97;2081855;28;19947;-66
2021/11/26 05:03:39;;;;;;;;;;;;;;;19.85;51.93;98780.59;2083118;28;19916;-66
2021/11/26 05:04:39;;;;;;;;;;;;;;;19.85;51.76;98782.47;2082443;28;19988;-66
2021/11/26 05:05:39;;;;;;;;;;;;;;;19.83;51.64;98777.19;2084770;28;19916;-66
2021/11/26 05:06:40;;;;;;;;;;;;;;;19.84;51.86;98778.03;2074051;28;19917;-66
2021/11/26 05:07:40;;;;;;;;;;;;;;;19.84;51.76;98783.50;2073256;28;19920;-66
2021/11/26 05:08:40;;;;;;;;;;;;;;;19.83;51.82;98777.19;2083777;28;20307;-66
2021/11/26 05:09:41;;;;;;;;;;;;;;;19.82;51.84;98780.97;2082568;28;20625;-66
2021/11/26 05:10:41;;;;;;;;;;;;;;;19.82;51.94;98775.50;2084080;28;20528;-66
2021/11/26 05:11:42;;;;;;;;;;;;;;;19.83;51.77;98776.34;2082574;28;19919;-65
2021/11/26 05:12:52;;;;;;;;;;;;;;;19.81;51.84;98771.03;2082094;28;20228;-66
2021/11/26 05:13:55;;;;;;;;;;;;;;;19.82;51.83;98774.63;2085075;28;19917;-65
2021/11/26 05:14:55;;;;;;;;;;;;;;;19.81;51.96;98775.66;2082386;28;19908;-66
2021/11/26 05:15:56;;;;;;;;;;;;;;;19.81;52.01;98767.47;2082855;28;19912;-66
2021/11/26 05:16:57;;;;;;;;;;;;;;;19.80;51.96;98772.09;2083229;28;20680;-66
2021/11/26 05:17:59;;;;;;;;;;;;;;;19.81;52.10;98770.19;2082819;28;20349;-66
2021/11/26 05:18:59;;;;;;;;;;;;;;;19.80;52.04;98771.25;2083714;28;19982;-66